createdAt,value
2022-08-30T00:00:38.374Z,100.00
2022-08-30T00:03:09.831Z,100.00
2022-08-30T00:05:39.735Z,100.00
2022-08-30T00:08:11.620Z,100.00
2022-08-30T00:10:42.162Z,100.00
2022-08-30T00:13:13.743Z,100.00
2022-08-30T00:15:43.940Z,100.00
2022-08-30T00:18:13.500Z,100.00
2022-08-30T00:20:43.048Z,100.00
2022-08-30T00:23:14.682Z,100.00
2022-08-30T00:25:44.698Z,100.00
2022-08-30T00:28:14.740Z,100.00
2022-08-30T00:30:44.294Z,100.00
2022-08-30T00:33:14.939Z,100.00
2022-08-30T00:35:44.906Z,100.00
2022-08-30T00:38:16.710Z,100.00
2022-08-30T00:40:47.929Z,100.00
2022-08-30T00:43:27.848Z,100.00
2022-08-30T00:45:58.199Z,100.00
2022-08-30T00:48:27.506Z,100.00
2022-08-30T00:51:01.447Z,100.00
2022-08-30T00:53:39.407Z,100.00
2022-08-30T00:56:09.298Z,100.00
2022-08-30T00:58:42.796Z,100.00
2022-08-30T01:01:12.368Z,100.00
2022-08-30T01:03:43.325Z,100.00
2022-08-30T01:06:17.797Z,100.00
2022-08-30T01:08:49.943Z,100.00
2022-08-30T01:11:23.394Z,100.00
2022-08-30T01:13:56.196Z,100.00
2022-08-30T01:16:26.332Z,100.00
2022-08-30T01:18:59.880Z,100.00
2022-08-30T01:21:36.539Z,100.00
2022-08-30T01:24:08.463Z,100.00
2022-08-30T01:26:39.909Z,100.00
2022-08-30T01:29:15.131Z,100.00
2022-08-30T01:31:44.351Z,100.00
2022-08-30T01:34:13.698Z,100.00
2022-08-30T01:36:45.374Z,100.00
2022-08-30T01:39:19.016Z,100.00
2022-08-30T01:41:48.323Z,100.00
2022-08-30T01:44:17.882Z,100.00
2022-08-30T01:46:49.540Z,100.00
2022-08-30T01:49:27.595Z,100.00
2022-08-30T01:52:00.729Z,100.00
2022-08-30T01:55:34.538Z,100.00
2022-08-30T01:58:20.628Z,100.00
2022-08-30T02:00:50.627Z,100.00
2022-08-30T02:03:38.120Z,100.00
2022-08-30T02:06:11.794Z,100.00
2022-08-30T02:09:02.817Z,100.00
2022-08-30T02:11:55.282Z,100.00
2022-08-30T02:14:46.453Z,100.00
2022-08-30T02:17:46.050Z,100.00
2022-08-30T02:20:23.502Z,100.00
2022-08-30T02:23:00.855Z,100.00
2022-08-30T02:25:35.941Z,100.00
2022-08-30T02:29:17.144Z,100.00
2022-08-30T02:31:50.510Z,100.00
2022-08-30T02:34:24.889Z,100.00
2022-08-30T02:36:54.386Z,100.00
2022-08-30T02:39:35.700Z,100.00
2022-08-30T02:42:09.239Z,100.00
2022-08-30T02:44:49.530Z,100.00
2022-08-30T02:47:28.455Z,100.00
2022-08-30T02:50:34.878Z,100.00
2022-08-30T02:53:18.181Z,100.00
2022-08-30T02:55:59.146Z,100.00
2022-08-30T02:58:39.050Z,100.00
2022-08-30T03:01:08.955Z,100.00
2022-08-30T03:03:43.804Z,100.00
2022-08-30T03:06:13.482Z,100.00
2022-08-30T03:08:43.405Z,100.00
2022-08-30T03:11:14.339Z,100.00
2022-08-30T03:13:43.600Z,100.00
2022-08-30T03:16:13.813Z,100.00
2022-08-30T03:18:44.550Z,100.00
2022-08-30T03:21:15.588Z,100.00
2022-08-30T03:23:45.283Z,100.00
2022-08-30T03:26:16.369Z,100.00
2022-08-30T03:28:45.855Z,100.00
2022-08-30T03:31:15.076Z,100.00
2022-08-30T03:33:45.781Z,100.00
2022-08-30T03:36:15.086Z,100.00
2022-08-30T03:38:44.360Z,100.00
2022-08-30T03:41:13.364Z,100.00
2022-08-30T03:43:42.499Z,100.00
2022-08-30T03:46:13.600Z,100.00
2022-08-30T03:48:45.153Z,100.00
2022-08-30T03:51:14.303Z,100.00
2022-08-30T03:53:43.365Z,100.00
2022-08-30T03:56:12.346Z,100.00
2022-08-30T03:58:41.527Z,100.00
2022-08-30T04:01:10.661Z,100.00
2022-08-30T04:03:40.036Z,100.00
2022-08-30T04:06:10.731Z,100.00
2022-08-30T04:08:40.400Z,100.00
2022-08-30T04:11:09.380Z,100.00
2022-08-30T04:13:38.327Z,100.00
2022-08-30T04:16:11.296Z,100.00
2022-08-30T04:18:40.319Z,100.00
2022-08-30T04:21:13.948Z,100.00
2022-08-30T04:23:43.746Z,100.00
2022-08-30T04:26:13.386Z,100.00
2022-08-30T04:28:42.647Z,100.00
2022-08-30T04:31:15.587Z,100.00
2022-08-30T04:33:44.990Z,100.00
2022-08-30T04:36:16.362Z,100.00
2022-08-30T04:38:45.457Z,100.00
2022-08-30T04:41:17.503Z,100.00
2022-08-30T04:43:48.438Z,100.00
2022-08-30T04:46:18.177Z,100.00
2022-08-30T04:48:48.098Z,100.00
2022-08-30T04:51:19.540Z,100.00
2022-08-30T04:53:48.636Z,100.00
2022-08-30T04:56:22.446Z,100.00
2022-08-30T04:58:54.469Z,100.00
2022-08-30T05:01:27.565Z,100.00
2022-08-30T05:03:58.963Z,100.00
2022-08-30T05:06:32.249Z,100.00
2022-08-30T05:09:01.855Z,100.00
2022-08-30T05:11:31.749Z,100.00
2022-08-30T05:14:01.183Z,100.00
2022-08-30T05:16:30.380Z,100.00
2022-08-30T05:18:59.363Z,100.00
2022-08-30T05:21:31.070Z,100.00
2022-08-30T05:24:02.221Z,100.00
2022-08-30T05:26:35.244Z,100.00
2022-08-30T05:29:04.241Z,100.00
2022-08-30T05:31:36.073Z,100.00
2022-08-30T05:34:06.515Z,100.00
2022-08-30T05:36:39.983Z,100.00
2022-08-30T05:39:13.332Z,100.00
2022-08-30T05:41:42.307Z,100.00
2022-08-30T05:44:13.435Z,100.00
2022-08-30T05:46:46.188Z,100.00
2022-08-30T05:49:15.440Z,100.00
2022-08-30T05:51:46.167Z,100.00
2022-08-30T05:54:17.736Z,100.00
2022-08-30T05:56:47.747Z,100.00
2022-08-30T05:59:18.105Z,100.00
2022-08-30T06:01:48.872Z,100.00
2022-08-30T06:04:19.767Z,100.00
2022-08-30T06:06:50.279Z,100.00
2022-08-30T06:09:19.993Z,100.00
2022-08-30T06:11:49.408Z,100.00
2022-08-30T06:14:18.475Z,100.00
2022-08-30T06:16:48.351Z,100.00
2022-08-30T06:19:18.434Z,100.00
2022-08-30T06:21:51.775Z,100.00
2022-08-30T06:24:35.710Z,100.00
2022-08-30T06:27:12.226Z,100.00
2022-08-30T06:29:41.804Z,100.00
2022-08-30T06:32:10.952Z,100.00
2022-08-30T06:34:39.970Z,100.00
2022-08-30T06:37:10.636Z,100.00
2022-08-30T06:39:39.906Z,100.00
2022-08-30T06:42:09.032Z,100.00
2022-08-30T06:44:39.317Z,100.00
2022-08-30T06:47:14.610Z,100.00
2022-08-30T06:49:43.955Z,100.00
2022-08-30T06:52:14.916Z,100.00
2022-08-30T06:54:44.153Z,100.00
2022-08-30T06:57:13.564Z,100.00
2022-08-30T06:59:42.523Z,100.00
2022-08-30T07:02:12.027Z,100.00
2022-08-30T07:04:40.990Z,100.00
2022-08-30T07:07:13.698Z,100.00
2022-08-30T07:09:44.599Z,100.00
2022-08-30T07:12:15.701Z,100.00
2022-08-30T07:14:44.657Z,100.00
2022-08-30T07:17:34.489Z,100.00
2022-08-30T07:20:05.840Z,100.00
2022-08-30T07:22:36.631Z,100.00
2022-08-30T07:25:06.968Z,100.00
2022-08-30T07:27:36.195Z,100.00
2022-08-30T07:30:07.386Z,100.00
2022-08-30T07:32:39.235Z,100.00
2022-08-30T07:35:08.988Z,100.00
2022-08-30T07:37:39.834Z,100.00
2022-08-30T07:40:11.557Z,100.00
2022-08-30T07:42:41.097Z,100.00
2022-08-30T07:45:12.271Z,100.00
2022-08-30T07:47:41.335Z,100.00
2022-08-30T07:50:11.005Z,100.00
2022-08-30T07:52:41.894Z,100.00
2022-08-30T07:55:11.815Z,100.00
2022-08-30T07:57:40.837Z,100.00
2022-08-30T08:00:11.707Z,100.00
2022-08-30T08:02:40.916Z,100.00
2022-08-30T08:05:15.195Z,100.00
2022-08-30T08:07:47.932Z,95.26
2022-08-30T08:10:17.762Z,97.71
2022-08-30T08:12:47.045Z,89.76
2022-08-30T08:15:16.292Z,88.41
2022-08-30T08:17:45.236Z,92.35
2022-08-30T08:20:14.498Z,93.03
2022-08-30T08:22:43.390Z,89.06
2022-08-30T08:25:15.279Z,91.44
2022-08-30T08:27:44.348Z,91.63
2022-08-30T08:30:14.607Z,89.20
2022-08-30T08:32:43.385Z,89.05
2022-08-30T08:35:13.347Z,87.99
2022-08-30T08:37:42.675Z,87.32
2022-08-30T08:40:29.145Z,88.26
2022-08-30T08:43:04.954Z,80.54
2022-08-30T08:45:49.899Z,83.60
2022-08-30T08:48:45.570Z,83.32
2022-08-30T08:51:41.611Z,88.63
2022-08-30T08:54:16.983Z,79.13
2022-08-30T08:56:47.473Z,79.23
2022-08-30T08:59:17.970Z,83.31
2022-08-30T09:01:51.011Z,87.92
2022-08-30T09:04:26.425Z,82.38
2022-08-30T09:06:59.950Z,81.93
2022-08-30T09:09:33.695Z,83.42
2022-08-30T09:12:05.514Z,84.89
2022-08-30T09:14:45.963Z,85.29
2022-08-30T09:17:19.082Z,85.33
2022-08-30T09:20:01.367Z,80.53
2022-08-30T09:22:37.847Z,78.70
2022-08-30T09:25:21.444Z,76.84
2022-08-30T09:27:54.256Z,74.76
2022-08-30T09:30:26.112Z,74.60
2022-08-30T09:32:59.229Z,78.06
2022-08-30T09:35:38.290Z,77.54
2022-08-30T09:38:10.468Z,80.52
2022-08-30T09:40:47.381Z,73.48
2022-08-30T09:43:27.843Z,72.25
2022-08-30T09:46:16.487Z,72.05
2022-08-30T09:48:47.483Z,68.70
2022-08-30T09:51:41.146Z,71.13
2022-08-30T09:54:20.187Z,71.61
2022-08-30T09:57:11.740Z,75.02
2022-08-30T09:59:56.116Z,70.20
2022-08-30T10:02:43.296Z,74.83
2022-08-30T10:05:25.243Z,74.50
2022-08-30T10:08:04.798Z,70.78
2022-08-30T10:10:45.853Z,67.55
2022-08-30T10:14:09.585Z,68.20
2022-08-30T10:16:56.745Z,65.67
2022-08-30T10:19:43.879Z,63.56
2022-08-30T10:22:18.146Z,67.45
2022-08-30T10:24:52.972Z,67.79
2022-08-30T10:27:27.710Z,66.39
2022-08-30T10:30:06.206Z,67.50
2022-08-30T10:32:44.886Z,66.72
2022-08-30T10:35:19.674Z,66.63
2022-08-30T10:37:56.298Z,66.39
2022-08-30T10:40:49.004Z,64.35
2022-08-30T10:43:39.181Z,64.60
2022-08-30T10:46:17.840Z,63.26
2022-08-30T10:48:50.272Z,60.03
2022-08-30T10:51:29.903Z,62.16
2022-08-30T10:54:04.863Z,62.82
2022-08-30T10:56:37.469Z,62.88
2022-08-30T10:59:07.498Z,66.35
2022-08-30T11:03:07.679Z,62.94
2022-08-30T11:06:07.573Z,61.35
2022-08-30T11:09:10.254Z,60.79
2022-08-30T11:11:56.998Z,62.35
2022-08-30T11:14:27.270Z,60.99
2022-08-30T11:17:01.041Z,60.65
2022-08-30T11:19:39.584Z,60.67
2022-08-30T11:22:15.608Z,58.99
2022-08-30T11:25:11.649Z,59.65
2022-08-30T11:27:52.739Z,61.33
2022-08-30T11:30:51.442Z,60.52
2022-08-30T11:33:43.477Z,55.51
2022-08-30T11:37:09.398Z,53.90
2022-08-30T11:40:04.117Z,58.21
2022-08-30T11:45:52.556Z,56.35
2022-08-30T11:48:55.481Z,57.40
2022-08-30T11:55:28.745Z,51.74
2022-08-30T11:58:11.509Z,53.45
2022-08-30T12:00:47.799Z,51.43
2022-08-30T12:03:35.268Z,49.99
2022-08-30T12:06:06.858Z,47.27
2022-08-30T12:08:59.579Z,47.64
2022-08-30T12:12:08.923Z,47.71
2022-08-30T12:14:52.448Z,49.73
2022-08-30T12:17:52.465Z,48.17
2022-08-30T12:20:29.141Z,47.45
2022-08-30T12:22:59.267Z,46.16
2022-08-30T12:25:35.086Z,46.36
2022-08-30T12:28:18.751Z,46.34
2022-08-30T12:30:48.875Z,40.93
2022-08-30T12:33:29.576Z,41.88
2022-08-30T12:36:01.481Z,44.21
2022-08-30T12:38:32.827Z,44.32
2022-08-30T12:41:05.798Z,40.99
2022-08-30T12:43:41.702Z,39.66
2022-08-30T12:46:16.191Z,41.16
2022-08-30T12:48:46.576Z,44.55
2022-08-30T12:51:38.480Z,42.21
2022-08-30T12:54:17.385Z,45.20
2022-08-30T12:56:55.130Z,45.28
2022-08-30T12:59:52.842Z,40.04
2022-08-30T13:02:25.478Z,42.11
2022-08-30T13:04:58.634Z,41.89
2022-08-30T13:07:32.575Z,42.59
2022-08-30T13:10:12.061Z,41.97
2022-08-30T13:12:41.617Z,39.89
2022-08-30T13:15:33.262Z,41.20
2022-08-30T13:18:22.267Z,41.16
2022-08-30T13:21:26.923Z,39.87
2022-08-30T13:24:01.008Z,41.83
2022-08-30T13:26:34.419Z,42.25
2022-08-30T13:29:10.526Z,41.38
2022-08-30T13:31:42.662Z,42.59
2022-08-30T13:34:13.360Z,41.46
2022-08-30T13:36:49.303Z,41.64
2022-08-30T13:39:21.692Z,42.32
2022-08-30T13:41:51.704Z,44.47
2022-08-30T13:44:21.602Z,44.18
2022-08-30T13:46:55.564Z,41.71
2022-08-30T13:52:21.702Z,41.87
2022-08-30T13:54:53.703Z,41.58
2022-08-30T14:00:19.567Z,43.07
2022-08-30T14:02:54.923Z,44.58
2022-08-30T14:11:11.436Z,46.84
2022-08-30T14:16:36.319Z,47.53
2022-08-30T14:19:08.023Z,46.95
2022-08-30T14:21:38.212Z,47.60
2022-08-30T14:24:08.323Z,46.11
2022-08-30T14:26:42.702Z,46.92
2022-08-30T14:29:14.041Z,46.64
2022-08-30T14:31:44.000Z,46.36
2022-08-30T14:34:16.042Z,48.75
2022-08-30T14:36:47.402Z,49.67
2022-08-30T14:39:24.001Z,48.63
2022-08-30T14:41:56.379Z,49.67
2022-08-30T14:44:26.525Z,50.26
2022-08-30T14:46:56.464Z,52.53
2022-08-30T14:49:27.690Z,52.40
2022-08-30T14:51:57.023Z,48.92
2022-08-30T14:54:28.214Z,51.18
2022-08-30T14:56:58.408Z,52.57
2022-08-30T14:59:28.224Z,54.08
2022-08-30T15:01:57.522Z,54.81
2022-08-30T15:04:28.144Z,51.00
2022-08-30T15:06:57.484Z,50.57
2022-08-30T15:09:27.783Z,47.33
2022-08-30T15:11:59.907Z,50.38
2022-08-30T15:14:33.328Z,48.37
2022-08-30T15:17:04.131Z,48.63
2022-08-30T15:19:35.640Z,49.23
2022-08-30T15:22:07.874Z,46.64
2022-08-30T15:24:37.615Z,48.91
2022-08-30T15:27:08.332Z,47.02
2022-08-30T15:29:38.152Z,46.54
2022-08-30T15:32:07.794Z,47.34
2022-08-30T15:34:38.867Z,48.50
2022-08-30T15:37:09.124Z,48.83
2022-08-30T15:39:39.931Z,49.63
2022-08-30T15:42:10.423Z,50.83
2022-08-30T15:44:39.821Z,51.58
2022-08-30T15:47:09.675Z,50.26
2022-08-30T15:49:40.967Z,50.15
2022-08-30T15:52:11.258Z,50.07
2022-08-30T15:54:43.508Z,49.81
2022-08-30T15:57:16.120Z,50.99
2022-08-30T15:59:46.643Z,50.99
2022-08-30T16:02:16.704Z,53.21
2022-08-30T16:04:48.690Z,51.91
2022-08-30T16:07:23.043Z,51.94
2022-08-30T16:09:52.452Z,52.54
2022-08-30T16:12:23.696Z,51.56
2022-08-30T16:14:53.543Z,52.54
2022-08-30T16:17:24.203Z,53.61
2022-08-30T16:19:58.550Z,53.42
2022-08-30T16:22:28.761Z,57.16
2022-08-30T16:24:59.678Z,55.19
2022-08-30T16:27:29.238Z,56.00
2022-08-30T16:29:58.506Z,56.70
2022-08-30T16:32:28.213Z,53.52
2022-08-30T16:34:59.856Z,54.68
2022-08-30T16:37:30.725Z,55.46
2022-08-30T16:40:01.596Z,55.03
2022-08-30T16:42:31.776Z,55.26
2022-08-30T16:45:02.184Z,58.20
2022-08-30T16:47:39.435Z,55.75
2022-08-30T16:50:11.966Z,55.53
2022-08-30T16:52:44.227Z,56.01
2022-08-30T16:55:14.037Z,54.89
2022-08-30T16:57:43.574Z,54.73
2022-08-30T17:00:14.218Z,55.06
2022-08-30T17:02:53.622Z,56.48
2022-08-30T17:05:26.208Z,56.38
2022-08-30T17:07:55.907Z,58.62
2022-08-30T17:10:26.441Z,57.09
2022-08-30T17:13:02.852Z,57.47
2022-08-30T17:15:32.477Z,58.73
2022-08-30T17:18:03.172Z,59.83
2022-08-30T17:20:36.220Z,60.23
2022-08-30T17:23:06.623Z,58.85
2022-08-30T17:25:36.829Z,59.88
2022-08-30T17:28:07.234Z,59.25
2022-08-30T17:30:36.894Z,60.60
2022-08-30T17:33:06.993Z,62.14
2022-08-30T17:35:38.992Z,62.06
2022-08-30T17:38:08.444Z,63.89
2022-08-30T17:40:40.197Z,64.44
2022-08-30T17:43:10.276Z,65.11
2022-08-30T17:45:39.922Z,65.35
2022-08-30T17:48:09.828Z,66.03
2022-08-30T17:50:41.134Z,65.02
2022-08-30T17:53:15.618Z,65.74
2022-08-30T17:55:49.883Z,67.30
2022-08-30T17:58:19.535Z,67.98
2022-08-30T18:00:53.938Z,67.24
2022-08-30T18:03:23.383Z,66.21
2022-08-30T18:05:56.884Z,65.99
2022-08-30T18:08:27.014Z,63.72
2022-08-30T18:10:56.647Z,66.00
2022-08-30T18:13:26.137Z,66.28
2022-08-30T18:15:56.925Z,66.44
2022-08-30T18:18:27.223Z,64.78
2022-08-30T18:20:59.154Z,64.66
2022-08-30T18:23:29.884Z,65.81
2022-08-30T18:26:02.149Z,65.16
2022-08-30T18:28:33.257Z,65.34
2022-08-30T18:31:02.871Z,64.91
2022-08-30T18:33:34.799Z,66.18
2022-08-30T18:36:08.424Z,67.60
2022-08-30T18:38:38.023Z,67.77
2022-08-30T18:41:10.636Z,67.48
2022-08-30T18:43:40.008Z,68.77
2022-08-30T18:46:11.638Z,69.97
2022-08-30T18:48:41.747Z,69.32
2022-08-30T18:51:14.813Z,69.49
2022-08-30T18:53:45.484Z,71.52
2022-08-30T18:56:16.832Z,71.86
2022-08-30T18:58:47.563Z,70.40
2022-08-30T19:01:22.662Z,71.40
2022-08-30T19:03:52.619Z,72.09
2022-08-30T19:06:25.427Z,72.39
2022-08-30T19:08:54.225Z,71.33
2022-08-30T19:11:23.429Z,74.00
2022-08-30T19:13:52.791Z,74.15
2022-08-30T19:16:47.185Z,74.45
2022-08-30T19:19:25.647Z,73.58
2022-08-30T19:22:04.293Z,73.77
2022-08-30T19:24:33.550Z,74.04
2022-08-30T19:27:03.652Z,74.59
2022-08-30T19:29:33.144Z,74.48
2022-08-30T19:32:01.928Z,74.57
2022-08-30T19:34:31.048Z,74.70
2022-08-30T19:37:01.698Z,74.71
2022-08-30T19:39:30.688Z,73.57
2022-08-30T19:41:59.753Z,74.23
2022-08-30T19:44:32.549Z,73.54
2022-08-30T19:47:02.747Z,73.60
2022-08-30T19:49:32.287Z,73.47
2022-08-30T19:52:07.546Z,73.27
2022-08-30T19:54:37.926Z,75.22
2022-08-30T19:57:16.828Z,74.44
2022-08-30T19:59:50.117Z,74.38
2022-08-30T20:02:24.034Z,73.64
2022-08-30T20:05:00.998Z,73.92
2022-08-30T20:07:35.704Z,73.21
2022-08-30T20:10:07.012Z,72.53
2022-08-30T20:12:45.094Z,68.95
2022-08-30T20:15:18.679Z,68.26
2022-08-30T20:18:05.246Z,66.34
2022-08-30T20:20:36.971Z,69.70
2022-08-30T20:23:10.499Z,65.18
2022-08-30T20:25:46.998Z,68.87
2022-08-30T20:28:16.368Z,64.53
2022-08-30T20:30:48.962Z,65.71
2022-08-30T20:33:18.405Z,62.24
2022-08-30T20:35:50.119Z,64.39
2022-08-30T20:38:22.190Z,63.05
2022-08-30T20:40:58.698Z,67.60
2022-08-30T20:43:31.206Z,68.12
2022-08-30T20:46:02.134Z,65.55
2022-08-30T20:48:32.834Z,65.36
2022-08-30T20:51:03.993Z,64.32
2022-08-30T20:53:34.363Z,67.47
2022-08-30T20:56:04.126Z,62.88
2022-08-30T20:58:39.245Z,69.04
2022-08-30T21:01:13.902Z,64.99
2022-08-30T21:03:44.786Z,65.59
2022-08-30T21:06:13.917Z,64.26
2022-08-30T21:08:44.906Z,65.20
2022-08-30T21:11:14.349Z,67.67
2022-08-30T21:13:46.087Z,68.29
2022-08-30T21:16:15.724Z,65.63
2022-08-30T21:18:47.615Z,65.02
2022-08-30T21:21:22.789Z,66.58
2022-08-30T21:23:54.826Z,69.10
2022-08-30T21:26:23.819Z,69.63
2022-08-30T21:28:55.678Z,66.60
2022-08-30T21:31:28.525Z,67.05
2022-08-30T21:33:58.736Z,63.52
2022-08-30T21:36:46.432Z,60.63
2022-08-30T21:39:24.068Z,65.67
2022-08-30T21:41:59.545Z,70.40
2022-08-30T21:44:29.091Z,64.66
2022-08-30T21:46:58.790Z,68.01
2022-08-30T21:49:27.842Z,66.88
2022-08-30T21:51:57.433Z,69.28
2022-08-30T21:54:31.632Z,70.93
2022-08-30T21:57:11.407Z,71.63
2022-08-30T21:59:40.307Z,70.98
2022-08-30T22:02:15.749Z,72.51
2022-08-30T22:04:47.573Z,73.90
2022-08-30T22:07:16.885Z,72.31
2022-08-30T22:09:49.189Z,74.95
2022-08-30T22:12:18.505Z,76.70
2022-08-30T22:14:50.194Z,73.04
2022-08-30T22:17:19.398Z,75.23
2022-08-30T22:19:50.769Z,75.99
2022-08-30T22:22:19.969Z,77.13
2022-08-30T22:24:53.025Z,75.05
2022-08-30T22:27:22.310Z,74.80
2022-08-30T22:29:54.206Z,73.85
2022-08-30T22:32:23.410Z,73.49
2022-08-30T22:34:55.616Z,74.72
2022-08-30T22:37:25.219Z,76.80
2022-08-30T22:39:55.987Z,75.33
2022-08-30T22:42:25.202Z,76.13
2022-08-30T22:45:11.201Z,78.92
2022-08-30T22:47:42.905Z,77.83
2022-08-30T22:50:14.463Z,77.11
2022-08-30T22:52:43.353Z,78.59
2022-08-30T22:55:13.712Z,79.69
2022-08-30T22:57:44.222Z,78.89
2022-08-30T23:00:17.708Z,78.27
2022-08-30T23:02:53.189Z,76.69
2022-08-30T23:05:24.170Z,80.72
2022-08-30T23:07:53.688Z,79.19
2022-08-30T23:10:28.261Z,79.41
2022-08-30T23:12:58.631Z,78.72
2022-08-30T23:15:29.906Z,80.68
2022-08-30T23:17:59.005Z,79.90
2022-08-30T23:20:28.095Z,79.16
2022-08-30T23:22:58.477Z,79.45
2022-08-30T23:25:51.714Z,80.58
2022-08-30T23:28:40.905Z,78.34
2022-08-30T23:31:30.072Z,80.54
2022-08-30T23:34:17.220Z,81.29
2022-08-30T23:37:03.816Z,80.89
2022-08-30T23:39:50.971Z,78.12
2022-08-30T23:42:39.033Z,79.10
2022-08-30T23:45:26.751Z,83.02
2022-08-30T23:48:13.505Z,80.81
2022-08-30T23:50:59.777Z,80.68
2022-08-30T23:53:48.872Z,83.91
2022-08-30T23:56:35.341Z,79.66
2022-08-30T23:59:25.390Z,83.00
